Time;durP1;ratioP1;P1;durP2;ratioP2;P2;SDS_P1;SDS_P2;PMS_P1;PMS_P2;Temp;Humidity;BMP_temperature;BMP_pressure;BME280_temperature;BME280_humidity;BME280_pressure;Samples;Min_cycle;Max_cycle;Signal;HPM_P1;HPM_P2
2021/10/05 00:01:11;;;;;;;30.45;16.88;;;11.20;99.90;;;;;;20748720;28;20042;-76
2021/10/05 00:11:12;;;;;;;36.27;19.27;;;11.10;99.90;;;;;;20744703;28;20045;-76
2021/10/05 00:21:13;;;;;;;42.63;21.48;;;11.00;99.90;;;;;;20743265;28;20041;-76
2021/10/05 00:31:14;;;;;;;52.33;25.90;;;11.00;99.90;;;;;;20759362;28;20030;-76
2021/10/05 00:41:15;;;;;;;53.07;27.50;;;10.90;99.90;;;;;;20740864;28;20543;-76
2021/10/05 00:51:16;;;;;;;54.83;26.80;;;10.90;99.90;;;;;;20756563;28;20034;-76
2021/10/05 01:01:17;;;;;;;57.03;26.20;;;10.80;99.90;;;;;;20755430;28;20427;-76
2021/10/05 01:11:18;;;;;;;43.73;22.03;;;10.80;99.90;;;;;;20716908;28;1205592;-76
2021/10/05 01:21:19;;;;;;;49.10;22.93;;;10.80;99.90;;;;;;20741882;28;20416;-76
2021/10/05 01:31:19;;;;;;;39.63;18.80;;;10.70;99.90;;;;;;20742200;28;20040;-76
2021/10/05 01:41:20;;;;;;;50.50;22.10;;;10.70;99.90;;;;;;20759885;28;20034;-76
2021/10/05 01:51:21;;;;;;;44.90;18.40;;;10.60;99.90;;;;;;20741843;28;20026;-76
2021/10/05 02:01:22;;;;;;;37.67;18.10;;;10.70;99.90;;;;;;20741045;28;20026;-76
2021/10/05 02:11:23;;;;;;;40.40;17.57;;;10.60;99.90;;;;;;20756338;28;20040;-76
2021/10/05 02:21:24;;;;;;;44.58;20.25;;;10.70;99.90;;;;;;20739127;28;20033;-76
2021/10/05 02:31:26;;;;;;;48.90;21.13;;;10.60;99.90;;;;;;20763923;28;20116;-76
2021/10/05 02:41:26;;;;;;;43.70;17.40;;;10.60;99.90;;;;;;20765282;28;20084;-76
2021/10/05 02:51:27;;;;;;;28.33;13.40;;;10.50;99.90;;;;;;20731607;28;20069;-76
2021/10/05 03:01:28;;;;;;;25.00;13.10;;;10.50;99.90;;;;;;20748639;28;20034;-77
2021/10/05 03:11:29;;;;;;;25.00;13.07;;;10.50;99.90;;;;;;20740341;28;20040;-75
2021/10/05 03:21:30;;;;;;;18.40;9.63;;;10.40;99.90;;;;;;20751616;28;20104;-76
2021/10/05 03:31:31;;;;;;;14.00;8.10;;;10.40;99.90;;;;;;20751072;28;20030;-76
2021/10/05 03:41:32;;;;;;;11.07;6.72;;;10.30;99.90;;;;;;20749814;28;20405;-77
2021/10/05 03:51:33;;;;;;;10.13;6.07;;;10.20;99.90;;;;;;20749447;28;20048;-76
2021/10/05 04:01:34;;;;;;;8.00;4.60;;;10.20;99.90;;;;;;20749121;28;20033;-76
2021/10/05 04:11:36;;;;;;;5.57;3.30;;;10.20;99.90;;;;;;20730356;28;20053;-76
2021/10/05 04:21:37;;;;;;;7.40;4.07;;;10.20;99.90;;;;;;20747404;28;20150;-76
2021/10/05 04:31:39;;;;;;;9.07;5.00;;;10.20;99.90;;;;;;20746778;28;20261;-76
2021/10/05 04:41:40;;;;;;;5.85;3.85;;;10.20;99.90;;;;;;20745764;28;20025;-76
2021/10/05 04:51:41;;;;;;;8.93;5.30;;;10.20;99.90;;;;;;20745390;28;20030;-77
2021/10/05 05:01:42;;;;;;;9.00;5.30;;;10.20;99.90;;;;;;20727416;28;20057;-75
2021/10/05 05:11:43;;;;;;;10.80;6.13;;;10.30;99.90;;;;;;20744031;28;20117;-76
2021/10/05 05:21:44;;;;;;;11.17;5.70;;;10.30;99.90;;;;;;20746703;28;20037;-76
2021/10/05 05:31:44;;;;;;;17.03;8.47;;;10.30;99.90;;;;;;20742283;28;20388;-75
2021/10/05 05:41:46;;;;;;;14.40;7.27;;;10.30;99.90;;;;;;20741823;28;20061;-75
2021/10/05 05:51:46;;;;;;;13.70;8.00;;;10.40;99.90;;;;;;20740240;28;20114;-76
2021/10/05 06:01:47;;;;;;;10.10;6.30;;;10.40;99.90;;;;;;20728826;28;20069;-76
2021/10/05 06:11:50;;;;;;;9.50;5.53;;;10.50;99.90;;;;;;20755567;28;20388;-75
2021/10/05 06:21:51;;;;;;;8.82;5.25;;;10.50;99.90;;;;;;20755653;28;20439;-76
2021/10/05 06:31:52;;;;;;;10.00;6.07;;;10.60;99.90;;;;;;20754718;28;20113;-77
2021/10/05 06:41:52;;;;;;;12.53;7.10;;;10.70;99.90;;;;;;20754521;28;20069;-76
2021/10/05 06:51:53;;;;;;;8.63;5.40;;;10.80;99.90;;;;;;20770492;28;20412;-77
2021/10/05 07:01:54;;;;;;;10.47;5.50;;;10.90;99.90;;;;;;20772141;28;20037;-77
2021/10/05 07:11:55;;;;;;;11.83;5.73;;;11.10;99.90;;;;;;20773208;28;20028;-77
2021/10/05 07:21:56;;;;;;;9.27;5.93;;;11.10;99.90;;;;;;20758494;28;20022;-76
2021/10/05 07:31:56;;;;;;;8.87;5.33;;;11.20;99.90;;;;;;20751277;28;20041;-77
2021/10/05 07:41:57;;;;;;;7.93;4.80;;;11.30;99.90;;;;;;20750527;28;20034;-76
2021/10/05 07:51:59;;;;;;;10.10;5.83;;;11.30;99.90;;;;;;20749216;28;20030;-76
2021/10/05 08:02:00;;;;;;;11.10;5.97;;;11.30;99.90;;;;;;20748673;28;20121;-76
2021/10/05 08:12:01;;;;;;;8.30;5.23;;;11.30;99.90;;;;;;20748529;28;20500;-76
2021/10/05 08:22:02;;;;;;;9.83;5.93;;;11.30;99.90;;;;;;20745804;28;20030;-76
2021/10/05 08:32:07;;;;;;;11.30;6.77;;;11.40;99.90;;;;;;20727955;28;20029;-76
2021/10/05 08:42:08;;;;;;;13.43;6.45;;;11.50;99.90;;;;;;20745150;28;20042;-76
2021/10/05 08:52:10;;;;;;;11.97;6.53;;;11.50;99.90;;;;;;20744259;28;20096;-76
2021/10/05 09:02:15;;;;;;;11.38;6.20;;;11.80;99.90;;;;;;20744367;28;20022;-76
2021/10/05 09:12:27;;;;;;;13.48;6.53;;;11.70;99.90;;;;;;20745256;28;20492;-74
2021/10/05 09:22:30;;;;;;;9.47;6.10;;;11.80;99.90;;;;;;20745043;28;20508;-75
2021/10/05 09:32:30;;;;;;;6.90;4.60;;;12.30;99.90;;;;;;20743085;28;20040;-75
2021/10/05 09:42:39;;;;;;;8.07;4.83;;;12.30;99.90;;;;;;20757472;28;20117;-75
2021/10/05 09:52:42;;;;;;;7.65;4.05;;;12.40;99.90;;;;;;20756809;28;20030;-75
2021/10/05 10:02:44;;;;;;;4.72;3.10;;;12.70;99.90;;;;;;20756729;28;20041;-74
2021/10/05 10:12:46;;;;;;;;;;;13.10;99.90;;;;;;20757764;28;20117;-75
2021/10/05 10:22:48;;;;;;;3.87;1.40;;;13.20;99.90;;;;;;20771978;28;20059;-74
2021/10/05 10:32:52;;;;;;;1.63;1.20;;;13.30;99.90;;;;;;20769938;28;20117;-74
2021/10/05 10:42:53;;;;;;;2.30;1.00;;;13.60;99.90;;;;;;20754177;28;20037;-74
2021/10/05 10:53:05;;;;;;;1.57;1.20;;;14.10;99.90;;;;;;20753871;28;20109;-75
2021/10/05 11:03:06;;;;;;;3.93;1.17;;;14.70;99.90;;;;;;20753728;28;20065;-76
2021/10/05 11:13:08;;;;;;;1.33;1.00;;;15.10;99.90;;;;;;20752498;28;20029;-77
2021/10/05 11:23:10;;;;;;;2.40;1.40;;;14.80;99.90;;;;;;20752025;28;20026;-76
2021/10/05 11:33:25;;;;;;;1.65;1.17;;;14.40;99.90;;;;;;20750954;28;20034;-76
2021/10/05 11:43:50;;;;;;;2.03;1.20;;;14.30;99.90;;;;;;20750272;28;20036;-75
2021/10/05 11:53:51;;;;;;;1.63;1.00;;;14.00;99.90;;;;;;20732103;28;20040;-76
2021/10/05 12:03:57;;;;;;;3.83;1.40;;;14.60;99.90;;;;;;20748750;28;20461;-75
2021/10/05 12:14:01;;;;;;;1.35;1.00;;;15.00;99.90;;;;;;20749620;28;20038;-75
2021/10/05 12:24:02;;;;;;;2.05;1.23;;;14.80;99.90;;;;;;20732258;28;20037;-75
2021/10/05 12:34:08;;;;;;;2.63;1.07;;;16.00;99.90;;;;;;20729704;28;20037;-75
2021/10/05 12:44:17;;;;;;;5.70;0.95;;;18.00;99.90;;;;;;20746630;28;20488;-74
2021/10/05 12:54:18;;;;;;;2.55;0.70;;;19.80;99.90;;;;;;20745521;28;20084;-75
2021/10/05 13:04:19;;;;;;;;;;;19.80;99.90;;;;;;20727951;28;20042;-75
2021/10/05 13:14:20;;;;;;;1.07;0.70;;;19.70;99.90;;;;;;20745497;28;19936;-74
2021/10/05 13:24:21;;;;;;;0.93;0.50;;;19.00;99.90;;;;;;20743851;28;20396;-74
2021/10/05 13:34:21;;;;;;;2.93;0.70;;;20.20;99.90;;;;;;20743255;28;20128;-75
2021/10/05 13:44:22;;;;;;;1.13;0.63;;;20.70;99.90;;;;;;20742982;28;20396;-74
2021/10/05 13:54:23;;;;;;;0.80;0.47;;;20.00;99.90;;;;;;20742479;28;20464;-74
2021/10/05 14:04:25;;;;;;;2.10;0.63;;;19.90;99.90;;;;;;20742341;28;20396;-75
2021/10/05 14:14:25;;;;;;;1.02;0.40;;;19.70;99.90;;;;;;20752426;28;20703;-74
2021/10/05 14:24:26;;;;;;;0.47;0.47;;;19.70;99.90;;;;;;20747984;28;20032;-75
2021/10/05 14:34:27;;;;;;;0.30;0.30;;;18.90;99.90;;;;;;20795546;28;20056;-75
2021/10/05 14:44:29;;;;;;;0.33;0.33;;;17.80;99.90;;;;;;20818449;28;20037;-78
2021/10/05 14:54:30;;;;;;;0.80;0.43;;;17.80;99.90;;;;;;20817409;28;20454;-76
2021/10/05 15:14:39;;;;;;;1.42;0.70;;;17.30;99.90;;;;;;20717545;28;20050;-78
2021/10/05 15:24:39;;;;;;;1.10;0.60;;;17.20;99.90;;;;;;20737936;28;20026;-80
2021/10/05 15:34:40;;;;;;;0.77;0.63;;;17.10;99.90;;;;;;20790706;28;20038;-79
2021/10/05 15:44:41;;;;;;;2.20;1.33;;;16.90;99.90;;;;;;20781829;28;20029;-79
2021/10/05 15:54:42;;;;;;;2.40;1.40;;;16.70;99.90;;;;;;20788678;28;20473;-79
2021/10/05 16:04:43;;;;;;;2.33;0.83;;;16.20;99.90;;;;;;20801013;28;20117;-79
2021/10/05 16:14:44;;;;;;;9.77;3.27;;;16.10;99.90;;;;;;20720991;28;20034;-79
2021/10/05 16:24:45;;;;;;;3.43;1.97;;;15.80;99.90;;;;;;20724117;28;20030;-79
2021/10/05 16:34:46;;;;;;;1.17;0.90;;;15.90;99.90;;;;;;20667217;28;20101;-79
2021/10/05 16:44:46;;;;;;;2.50;1.20;;;15.60;99.90;;;;;;20660808;28;20279;-79
2021/10/05 16:54:47;;;;;;;2.77;1.10;;;15.50;99.90;;;;;;20672053;28;20037;-79
2021/10/05 17:04:51;;;;;;;6.17;2.60;;;14.70;99.90;;;;;;20642270;28;20026;-79
2021/10/05 17:14:52;;;;;;;5.38;2.28;;;14.30;99.90;;;;;;20664187;28;20038;-79
2021/10/05 17:24:55;;;;;;;3.07;1.40;;;14.20;99.90;;;;;;20665497;28;20396;-80
2021/10/05 17:34:56;;;;;;;2.55;1.42;;;14.30;99.90;;;;;;20597978;28;20035;-80
2021/10/05 17:44:57;;;;;;;3.43;1.70;;;14.30;99.90;;;;;;20602112;28;20458;-81
2021/10/05 17:54:58;;;;;;;5.63;2.43;;;14.20;99.90;;;;;;20602670;28;20094;-79
2021/10/05 18:04:59;;;;;;;4.63;2.13;;;14.30;99.90;;;;;;20630639;28;20080;-80
2021/10/05 18:15:00;;;;;;;;;;;14.20;99.90;;;;;;20702913;28;20034;-79
2021/10/05 18:25:01;;;;;;;2.57;1.50;;;13.70;99.90;;;;;;20705566;28;20323;-80
2021/10/05 18:35:03;;;;;;;5.27;1.30;;;13.80;99.90;;;;;;20671451;28;20420;-82
2021/10/05 18:45:05;;;;;;;7.30;2.50;;;13.60;99.90;;;;;;20689064;28;20023;-80
2021/10/05 18:55:06;;;;;;;;;;;13.40;99.90;;;;;;20712736;28;20388;-79
2021/10/05 19:05:07;;;;;;;2.75;0.75;;;13.20;99.90;;;;;;20713195;28;19929;-81
2021/10/05 19:15:08;;;;;;;4.30;0.35;;;12.90;99.90;;;;;;20678140;28;20045;-80
2021/10/05 19:25:09;;;;;;;2.33;0.60;;;12.10;99.90;;;;;;20684656;28;20448;-79
2021/10/05 19:35:10;;;;;;;3.40;0.70;;;11.40;99.90;;;;;;20682243;28;20031;-79
2021/10/05 19:45:12;;;;;;;3.17;0.60;;;11.00;99.90;;;;;;20685034;28;20481;-80
2021/10/05 19:55:13;;;;;;;7.00;1.00;;;10.80;99.90;;;;;;20699039;28;20552;-80
2021/10/05 20:05:14;;;;;;;4.35;0.68;;;10.70;99.90;;;;;;20706085;28;20038;-79
2021/10/05 20:15:15;;;;;;;4.57;0.90;;;10.70;99.90;;;;;;20664021;28;20045;-78
2021/10/05 20:25:16;;;;;;;4.57;0.90;;;10.60;99.90;;;;;;20612705;28;20038;-79
2021/10/05 20:35:17;;;;;;;3.03;0.95;;;10.70;99.90;;;;;;20609885;28;20117;-81
2021/10/05 20:45:18;;;;;;;9.33;1.40;;;10.60;99.90;;;;;;20598042;28;20035;-80
2021/10/05 20:55:19;;;;;;;3.90;1.30;;;10.50;99.90;;;;;;20610300;28;20067;-81
2021/10/05 21:05:21;;;;;;;4.00;1.17;;;10.50;99.90;;;;;;20610167;28;20493;-81
2021/10/05 21:15:22;;;;;;;6.78;1.23;;;10.40;99.90;;;;;;20605618;28;20042;-80
2021/10/05 21:25:23;;;;;;;9.97;1.33;;;10.40;99.90;;;;;;20572495;28;20042;-79
2021/10/05 21:35:24;;;;;;;6.33;1.30;;;10.40;99.90;;;;;;20607290;28;20027;-80
2021/10/05 21:45:25;;;;;;;;;;;10.40;99.90;;;;;;20590508;28;20031;-80
2021/10/05 21:55:27;;;;;;;5.22;1.35;;;10.40;99.90;;;;;;20611470;28;19961;-78
2021/10/05 22:05:28;;;;;;;2.60;1.50;;;10.40;99.90;;;;;;20610844;28;20536;-79
2021/10/05 22:15:29;;;;;;;8.30;1.80;;;10.50;99.90;;;;;;20605149;28;20086;-80
2021/10/05 22:25:31;;;;;;;9.60;1.00;;;10.50;99.90;;;;;;20596660;28;20039;-78
2021/10/05 22:35:31;;;;;;;3.60;1.08;;;10.60;99.90;;;;;;20596642;28;20126;-79
2021/10/05 22:45:33;;;;;;;4.80;0.97;;;10.60;99.90;;;;;;20614058;28;20389;-79
2021/10/05 22:55:34;;;;;;;5.03;0.82;;;10.50;99.90;;;;;;20597272;28;20031;-78
2021/10/05 23:05:35;;;;;;;6.10;0.90;;;10.40;99.90;;;;;;20622183;28;20039;-79
2021/10/05 23:15:36;;;;;;;2.47;0.50;;;10.30;99.90;;;;;;20619699;28;20042;-79
2021/10/05 23:25:37;;;;;;;4.20;1.00;;;10.20;99.90;;;;;;20621249;28;20437;-79
2021/10/05 23:35:38;;;;;;;3.40;1.00;;;10.10;99.90;;;;;;20607965;28;20049;-79
2021/10/05 23:45:39;;;;;;;3.90;1.30;;;9.90;99.90;;;;;;20635538;28;20328;-79
2021/10/05 23:55:40;;;;;;;7.87;1.10;;;9.90;99.90;;;;;;20636355;28;20035;-79
